• Join FlightAware (Why Join?)
  • Login
  • US Flag 
11:36AM EDT


 

Airport Tracker/Info


-or-


 

Live Flight TrackerFlight Track Log ✈ GEC8170 ✈ 12-May-2013 ✈ EDDF / FRA - KATL

Flight Track Log - Related Links

Times and Time Zones

All times are in EDT time to prevent confusion due to time zone crossing. See the GEC8170 flight status page for this flight to view local times or setup timezone preferences in your user account.

Time Position Orientation Groundspeed Altitude Reporting Facility
EDT Latitude Longitude Course Direction KTS MPH feet Rate Location/Type
04:52PM 49.9930 8.5270 180° South 198 228 900  Level FlightAware
04:52PM 49.9840 8.5270 180° South 194 223 1,400 1,980 Climbing FlightAware
04:53PM 49.9610 8.5280 178° South 213 245 1,900 1,620 Climbing FlightAware
04:53PM 49.9450 8.5300 175° South 216 249 2,500 1,860 Climbing FlightAware
04:54PM 49.8990 8.5320 178° South 234 269 3,800 1,800 Climbing FlightAware
04:54PM 49.8370 8.5150 190° South 263 303 5,200 1,560 Climbing FlightAware
04:55PM 49.8070 8.4980 200° South 294 338 5,800 2,100 Climbing FlightAware
04:55PM 49.7880 8.4850 204° Southwest 286 329 6,600 2,760 Climbing FlightAware
04:55PM 49.7730 8.4630 223° Southwest 289 333 7,200 2,760 Climbing FlightAware
04:56PM 49.7630 8.4350 241° Southwest 289 333 8,000 3,000 Climbing FlightAware
04:56PM 49.7610 8.4040 264° West 292 336 8,700 2,520 Climbing FlightAware
04:56PM 49.7680 8.3530 282° West 296 341 9,700 2,100 Climbing FlightAware
04:57PM 49.7850 8.2320 282° West 337 388 11,500 1,920 Climbing FlightAware
04:58PM 49.7780 8.1180 265° West 368 423 12,900 2,220 Climbing FlightAware
04:59PM 49.7730 8.0110 266° West 378 435 14,700 2,400 Climbing FlightAware
04:59PM 49.7670 7.9010 265° West 397 457 16,100 1,680 Climbing FlightAware
05:00PM 49.7600 7.7700 265° West 425 489 17,100 1,800 Climbing FlightAware
05:01PM 49.7530 7.6470 265° West 430 495 18,700 2,220 Climbing FlightAware
05:01PM 49.7460 7.5090 266° West 437 503 20,300 1,860 Climbing FlightAware
05:02PM 49.7380 7.3860 264° West 448 516 21,400 1,800 Climbing FlightAware
05:03PM 49.7300 7.2400 265° West 454 522 22,900 1,680 Climbing FlightAware
05:03PM 49.7220 7.1110 265° West 463 533 23,800 1,860 Climbing FlightAware
05:04PM 49.7130 6.9590 265° West 457 526 25,600 2,040 Climbing FlightAware
05:05PM 49.7050 6.8380 264° West 456 525 26,700 1,380 Climbing FlightAware
05:06PM 49.6970 6.7080 265° West 462 532 27,500 1,440 Climbing FlightAware
05:06PM 49.6870 6.5530 264° West 459 528 28,800 1,620 Climbing FlightAware
05:07PM 49.6790 6.4220 265° West 457 526 29,800 1,200 Climbing FlightAware
05:08PM 49.6686 6.2718 264° West 451 519 30,500 840 Climbing FlightAware ADS-B
05:08PM 49.6600 6.1490 264° West 454 522 31,000 600 Climbing FlightAware
05:09PM 49.6576 6.1127 264° West 451 519 31,000  Level FlightAware ADS-B
05:09PM 49.6510 6.0230 264° West 454 522 31,000  Level FlightAware
05:10PM 49.6370 5.8790 262° West 459 528 31,000  Level FlightAware
05:10PM 49.6190 5.7500 258° West 454 522 31,000  Level FlightAware
05:11PM 49.6020 5.6230 258° West 454 522 31,000  Level FlightAware
05:12PM 49.5830 5.4800 258° West 453 521 31,000  Level FlightAware
05:13PM 49.5660 5.3550 258° West 452 520 31,000  Level FlightAware
05:13PM 49.5460 5.2120 258° West 455 524 31,000  Level FlightAware
05:14PM 49.5280 5.0850 258° West 456 525 31,000  Level FlightAware
05:15PM 49.5100 4.9600 258° West 456 525 31,000  Level FlightAware
05:15PM 49.4955 4.8500 259° West 455 524 31,000  Level FlightAware ADS-B
05:16PM 49.4835 4.7545 259° West 454 522 31,000  Level FlightAware ADS-B
05:16PM 49.4709 4.6560 259° West 454 522 31,000  Level FlightAware ADS-B
05:17PM 49.4585 4.5608 259° West 454 522 31,000  Level FlightAware ADS-B
05:17PM 49.4454 4.4616 259° West 452 520 31,000  Level FlightAware ADS-B
05:18PM 49.4329 4.3673 259° West 448 516 31,000  Level FlightAware ADS-B
05:18PM 49.4195 4.2667 258° West 447 514 31,000  Level FlightAware ADS-B
05:19PM 49.4071 4.1746 258° West 445 512 31,000  Level FlightAware ADS-B
05:19PM 49.3943 4.0802 258° West 445 512 31,000  Level FlightAware ADS-B
05:20PM 49.3814 3.9858 258° West 446 513 31,000  Level FlightAware ADS-B
05:20PM 49.3683 3.8905 258° West 448 516 31,000  Level FlightAware ADS-B
05:21PM 49.3520 3.7730 258° West 448 516 31,000 60 Level FlightAware
05:22PM 49.3330 3.6350 258° West 450 518 31,100 60 Climbing FlightAware
05:22PM 49.3161 3.5159 258° West 451 519 31,100  Level FlightAware ADS-B
05:23PM 49.3097 3.4641 259° West 448 516 31,100  Level FlightAware ADS-B
05:23PM 49.3074 3.4327 264° West 446 513 31,100 -180 Level FlightAware ADS-B
05:23PM 49.3017 3.3337 265° West 446 513 31,000 -120 Descending FlightAware ADS-B
05:24PM 49.2955 3.2378 264° West 446 513 31,000  Level FlightAware ADS-B
05:24PM 49.2890 3.1388 264° West 445 512 31,000  Level FlightAware ADS-B
05:25PM 49.2828 3.0443 264° West 446 513 31,000  Level FlightAware ADS-B
05:26PM 49.2733 2.9014 264° West 446 513 31,000  Level FlightAware ADS-B
05:26PM 49.2668 2.8064 264° West 444 511 31,000  Level FlightAware ADS-B
05:27PM 49.2599 2.7060 264° West 444 511 31,000  Level FlightAware ADS-B
05:27PM 49.2534 2.6094 264° West 443 510 31,000  Level FlightAware ADS-B
05:28PM 49.2467 2.5155 264° West 444 511 31,000 -1,980 Level FlightAware ADS-B
05:28PM 49.2448 2.4670 264° West 480 552 29,500  Descending FlightAware UK
05:28PM 49.2399 2.4198 264° West 443 510 31,000 1,860 Climbing FlightAware ADS-B
05:29PM 49.2327 2.3193 264° West 442 509 31,000 -1,800 Level FlightAware ADS-B
05:29PM 49.2285 2.2618 264° West 482 555 29,500  Descending FlightAware UK
05:29PM 49.2258 2.2252 264° West 441 507 31,000  Climbing FlightAware ADS-B
05:29PM 49.2215 2.1689 264° West 480 552 29,500  Descending FlightAware UK
05:30PM 49.2190 2.1325 264° West 441 507 31,000  Climbing FlightAware ADS-B
05:30PM 49.2151 2.0764 264° West 480 552 29,500  Descending FlightAware UK
05:30PM 49.2122 2.0399 264° West 441 507 31,000  Climbing FlightAware ADS-B
05:30PM 49.2080 1.9837 264° West 478 550 29,500  Descending FlightAware UK
05:31PM 49.2052 1.9470 264° West 440 506 31,000 -240 Climbing FlightAware ADS-B
05:31PM 49.2010 1.8922 264° West 476 548 29,400  Descending FlightAware UK
05:31PM 49.1981 1.8533 264° West 440 506 31,000  Climbing FlightAware ADS-B
05:31PM 49.1940 1.7998 264° West 478 550 29,400  Descending FlightAware UK
05:32PM 49.1910 1.7608 264° West 441 507 31,000  Climbing FlightAware ADS-B
05:32PM 49.1869 1.7073 264° West 478 550 29,400  Descending FlightAware UK
05:32PM 49.1835 1.6656 264° West 442 509 31,000  Climbing FlightAware ADS-B
05:32PM 49.1798 1.6155 264° West 480 552 29,400  Descending FlightAware UK
05:33PM 49.1759 1.5717 264° West 442 509 31,000  Climbing FlightAware ADS-B
05:33PM 49.1724 1.5221 264° West 480 552 29,400  Descending FlightAware UK
05:33PM 49.1681 1.4720 264° West 443 510 31,000 120 Climbing FlightAware ADS-B
05:34PM 49.1638 1.4120 264° West 480 552 29,500  Descending FlightAware UK
05:34PM 49.1605 1.3772 264° West 443 510 31,000  Climbing FlightAware ADS-B
05:34PM 49.1564 1.3200 264° West 480 552 29,500  Descending FlightAware UK
05:34PM 49.1529 1.2836 264° West 443 510 31,000  Climbing FlightAware ADS-B
05:35PM 49.1489 1.2276 264° West 480 552 29,500  Descending FlightAware UK
05:35PM 49.1446 1.1831 264° West 445 512 31,000  Climbing FlightAware ADS-B
05:35PM 49.1410 1.1338 264° West 480 552 29,500  Descending FlightAware UK
05:35PM 49.1365 1.0856 264° West 445 512 31,000  Climbing FlightAware ADS-B
05:36PM 49.1334 1.0413 264° West 480 552 29,500  Descending FlightAware UK
05:36PM 49.1288 0.9919 264° West 445 512 31,000  Climbing FlightAware ADS-B
05:36PM 49.1240 0.9287 264° West 480 552 29,500  Descending FlightAware UK
05:36PM 49.1204 0.8931 264° West 446 513 31,000  Climbing FlightAware ADS-B
05:37PM 49.1158 0.8353 264° West 480 552 29,500  Descending FlightAware UK
05:37PM 49.1125 0.7998 264° West 446 513 31,000  Climbing FlightAware ADS-B
05:37PM 49.1077 0.7424 264° West 480 552 29,500  Descending FlightAware UK
05:37PM 49.1042 0.7051 264° West 446 513 31,000  Climbing FlightAware ADS-B
05:38PM 49.0995 0.6490 264° West 480 552 29,500  Descending FlightAware UK
05:38PM 49.0962 0.6118 264° West 447 514 31,000  Climbing FlightAware ADS-B
05:38PM 49.0916 0.5555 264° West 482 555 29,500  Descending FlightAware UK
05:38PM 49.0870 0.5080 262° West 447 514 31,000  Climbing FlightAware
05:38PM 49.0865 0.4994 262° West 482 555 29,500  Descending FlightAware UK
05:39PM 49.0848 0.4835 262° West 447 514 31,000  Climbing FlightAware ADS-B
05:39PM 49.0792 0.4247 262° West 482 555 29,500  Descending FlightAware UK
05:39PM 49.0765 0.3900 262° West 447 514 31,000  Climbing FlightAware ADS-B
05:39PM 49.0703 0.3324 262° West 482 555 29,500  Descending FlightAware UK
05:40PM 49.0680 0.2966 262° West 447 514 31,000  Climbing FlightAware ADS-B
05:40PM 49.0617 0.2389 262° West 482 555 29,500 -2,460 Descending FlightAware UK
05:40PM 49.0568 0.1828 262° West 482 555 29,500 3,720 Level FlightAware UK
05:40PM 49.0559 0.1633 262° West 447 514 31,000  Climbing FlightAware ADS-B
05:41PM 49.0499 0.1079 262° West 482 555 29,500  Descending FlightAware UK
05:41PM 49.0473 0.0702 262° West 446 513 31,000  Climbing FlightAware ADS-B
05:41PM 49.0412 0.0146 262° West 480 552 29,500  Descending FlightAware UK
05:41PM 49.0383 -0.0269 262° West 447 514 31,000  Climbing FlightAware ADS-B
05:42PM 49.0327 -0.0785 262° West 482 555 29,500  Descending FlightAware UK
05:42PM 49.0293 -0.1227 262° West 448 516 31,000  Climbing FlightAware ADS-B
05:42PM 49.0241 -0.1718 262° West 482 555 29,500  Descending FlightAware UK
05:42PM 49.0202 -0.2184 262° West 447 514 31,000  Climbing FlightAware ADS-B
05:43PM 49.0134 -0.2823 262° West 480 552 29,500  Descending FlightAware UK
05:43PM 49.0109 -0.3164 262° West 445 512 31,000  Climbing FlightAware ADS-B
05:43PM 49.0046 -0.3761 262° West 478 550 29,500  Descending FlightAware UK
05:43PM 49.0019 -0.4105 262° West 446 513 31,000  Climbing FlightAware ADS-B
05:44PM 48.9958 -0.4685 262° West 480 552 29,500  Descending FlightAware UK
05:44PM 48.9919 -0.5120 262° West 446 513 31,000  Climbing FlightAware ADS-B
05:44PM 48.9865 -0.5607 262° West 480 552 29,500  Descending FlightAware UK
05:44PM 48.9824 -0.6098 262° West 446 513 31,000  Climbing FlightAware ADS-B
05:45PM 48.9755 -0.6722 262° West 480 552 29,500 -2,400 Descending FlightAware UK
05:45PM 48.9701 -0.7277 262° West 480 552 29,500  Level FlightAware UK
05:45PM 48.9646 -0.7828 261° West 480 552 29,500 4,260 Level FlightAware UK
05:45PM 48.9646 -0.7909 261° West 446 513 31,000  Climbing FlightAware ADS-B
05:46PM 48.9591 -0.8390 261° West 480 552 29,500  Descending FlightAware UK
05:46PM 48.9550 -0.8849 261° West 446 513 31,000  Climbing FlightAware ADS-B
05:46PM 48.9498 -0.9311 261° West 480 552 29,500  Descending FlightAware UK
05:46PM 48.9445 -0.9868 261° West 446 513 31,000  Climbing FlightAware ADS-B
05:47PM 48.9383 -1.0418 261° West 478 550 29,500 -2,520 Descending FlightAware UK
05:47PM 48.9325 -1.0980 261° West 480 552 29,500 3,600 Level FlightAware UK
05:47PM 48.9309 -1.1189 261° West 446 513 31,000  Climbing FlightAware ADS-B
05:47PM 48.9248 -1.1720 261° West 480 552 29,500 -2,580 Descending FlightAware UK
05:48PM 48.9190 -1.2275 261° West 478 550 29,500  Level FlightAware UK
05:48PM 48.9134 -1.2823 261° West 476 548 29,500 2,760 Level FlightAware UK
05:48PM 48.9100 -1.3200 261° West 444 511 31,000  Climbing FlightAware
05:49PM 48.9037 -1.3747 261° West 476 548 29,500  Descending FlightAware UK
05:49PM 48.9034 -1.3831 261° West 445 512 31,000  Climbing FlightAware ADS-B
05:49PM 48.8978 -1.4300 261° West 476 548 29,500 -2,820 Descending FlightAware UK
05:49PM 48.8923 -1.4847 261° West 476 548 29,500 2,640 Level FlightAware UK
05:49PM 48.8870 -1.5369 261° West 446 513 31,000 -180 Climbing FlightAware ADS-B
05:50PM 48.8800 -1.5966 261° West 480 552 29,400 -2,460 Descending FlightAware UK
05:50PM 48.8740 -1.6514 261° West 480 552 29,500 300 Climbing FlightAware UK
05:50PM 48.8680 -1.7072 261° West 480 552 29,600 4,800 Climbing FlightAware UK
05:50PM 48.8690 -1.7030 261° West 449 517 31,100 -360 Climbing FlightAware
05:51PM 48.8619 -1.7626 261° West 482 555 29,500 -2,880 Descending FlightAware UK
05:51PM 48.8558 -1.8186 261° West 482 555 29,500 5,040 Level FlightAware UK
05:51PM 48.8570 -1.8140 261° West 449 517 31,100  Climbing FlightAware
05:51PM 48.8495 -1.8747 261° West 482 555 29,500 -2,760 Descending FlightAware UK
05:52PM 48.8433 -1.9311 261° West 482 555 29,500 2,880 Level FlightAware UK
05:52PM 48.8400 -1.9700 261° West 446 513 31,100  Climbing FlightAware
05:52PM 48.8332 -2.0240 261° West 482 555 29,500 -2,940 Descending FlightAware UK
05:52PM 48.8269 -2.0807 260° West 480 552 29,500 -180 Level FlightAware UK
05:53PM 48.8207 -2.1361 260° West 478 550 29,400 2,760 Descending FlightAware UK
05:53PM 48.8180 -2.1670 260° West 444 511 31,000 300 Climbing FlightAware
05:53PM 48.8145 -2.1914 260° West 478 550 29,500 -5,640 Descending FlightAware UK
05:53PM 48.8104 -2.2285 260° West 478 550 29,500 -240 Level FlightAware UK
05:53PM 48.8043 -2.2835 260° West 478 550 29,400 3,060 Descending FlightAware UK
05:54PM 48.8020 -2.3100 260° West 444 511 31,000  Climbing FlightAware
05:54PM 48.7937 -2.3747 260° West 478 550 29,400 -2,640 Descending FlightAware UK
05:54PM 48.7873 -2.4305 260° West 478 550 29,400 4,560 Level FlightAware UK
05:54PM 48.7880 -2.4320 260° West 443 510 31,000  Climbing FlightAware
05:55PM 48.7810 -2.4852 260° West 476 548 29,400 -2,940 Descending FlightAware UK
05:55PM 48.7745 -2.5401 260° West 478 550 29,400  Level FlightAware UK
05:55PM 48.7680 -2.5950 260° West 478 550 29,400  Level FlightAware UK
05:55PM 48.7616 -2.6495 260° West 476 548 29,400  Level FlightAware UK
05:56PM 48.7551 -2.7047 260° West 476 548 29,400 4,560 Level FlightAware UK
05:56PM 48.7570 -2.6960 260° West 446 513 31,000  Climbing FlightAware
05:56PM 48.7485 -2.7598 260° West 478 550 29,400  Descending FlightAware UK
05:56PM 48.7460 -2.7890 260° West 445 512 31,000  Climbing FlightAware
05:56PM 48.7421 -2.8151 260° West 478 550 29,400 -6,420 Descending FlightAware UK
05:57PM 48.7378 -2.8520 260° West 478 550 29,400  Level FlightAware UK
05:57PM 48.7313 -2.9068 260° West 478 550 29,400 2,700 Level FlightAware UK
05:57PM 48.7280 -2.9410 260° West 448 516 31,000  Climbing FlightAware
05:57PM 48.7247 -2.9622 260° West 478 550 29,400 -4,740 Descending FlightAware UK
05:57PM 48.7180 -3.0176 260° West 478 550 29,500 120 Climbing FlightAware UK
05:58PM 48.7113 -3.0729 259° West 478 550 29,500 3,420 Level FlightAware UK
05:58PM 48.7110 -3.0800 259° West 449 517 31,000  Climbing FlightAware
05:58PM 48.7021 -3.1463 259° West 480 552 29,500 -2,760 Descending FlightAware UK
05:58PM 48.6955 -3.2020 260° West 482 555 29,500 4,500 Level FlightAware UK
05:58PM 48.6970 -3.1890 260° West 450 518 31,000  Climbing FlightAware
05:59PM 48.6885 -3.2576 260° West 482 555 29,500 -2,520 Descending FlightAware UK
05:59PM 48.6818 -3.3127 260° West 482 555 29,600 3,300 Climbing FlightAware UK
05:59PM 48.6810 -3.3280 260° West 450 518 31,100 -240 Climbing FlightAware
06:00PM 48.6703 -3.4054 260° West 478 550 29,500 -2,640 Descending FlightAware UK
06:00PM 48.6635 -3.4611 259° West 478 550 29,500  Level FlightAware UK
06:00PM 48.6566 -3.5172 260° West 478 550 29,500 2,700 Level FlightAware UK
06:00PM 48.6540 -3.5430 259° West 450 518 31,000  Climbing FlightAware
06:00PM 48.6498 -3.5715 259° West 478 550 29,500 -6,000 Descending FlightAware UK
06:01PM 48.6451 -3.6093 259° West 478 550 29,500 -240 Level FlightAware UK
06:01PM 48.6383 -3.6643 259° West 476 548 29,400 -180 Descending FlightAware UK
06:01PM 48.6313 -3.7194 259° West 478 550 29,400  Level FlightAware UK
06:02PM 48.6240 -3.7756 259° West 478 550 29,400 3,960 Level FlightAware UK
06:02PM 48.6240 -3.7750 259° West 452 520 31,000  Climbing FlightAware
06:02PM 48.6144 -3.8498 259° West 476 548 29,400 -2,700 Descending FlightAware UK
06:02PM 48.6071 -3.9056 259° West 478 550 29,400 4,320 Level FlightAware UK
06:02PM 48.6070 -3.9090 259° West 454 522 31,000  Climbing FlightAware
06:03PM 48.5976 -3.9796 259° West 478 550 29,400 -2,580 Descending FlightAware UK
06:03PM 48.5903 -4.0362 259° West 478 550 29,400 4,800 Level FlightAware UK
06:03PM 48.5910 -4.0350 259° West 455 524 31,000  Climbing FlightAware
06:03PM 48.5830 -4.0923 259° West 478 550 29,400 -2,700 Descending FlightAware UK
06:04PM 48.5757 -4.1478 259° West 478 550 29,500 3,300 Climbing FlightAware UK
06:04PM 48.5720 -4.1780 259° West 455 524 31,000  Climbing FlightAware
06:04PM 48.5634 -4.2412 259° West 480 552 29,500 -2,460 Descending FlightAware UK
06:04PM 48.5560 -4.2973 259° West 480 552 29,500 4,260 Level FlightAware UK
06:04PM 48.5560 -4.3020 259° West 456 525 31,000  Climbing FlightAware
06:05PM 48.5486 -4.3534 259° West 480 552 29,500 -2,580 Descending FlightAware UK
06:05PM 48.5411 -4.4089 259° West 478 550 29,600 4,080 Climbing FlightAware UK
06:05PM 48.5390 -4.4270 259° West 458 527 31,200 480 Climbing FlightAware
06:05PM 48.5313 -4.4837 259° West 480 552 29,800 -2,100 Descending FlightAware UK
06:06PM 48.5238 -4.5399 259° West 480 552 30,000 3,840 Climbing FlightAware UK
06:06PM 48.5210 -4.5630 259° West 454 522 31,600 360 Climbing FlightAware
06:06PM 48.5113 -4.6332 259° West 478 550 30,200 -1,920 Descending FlightAware UK
06:06PM 48.5039 -4.6889 259° West 478 550 30,400 4,080 Climbing FlightAware UK
06:07PM 48.5020 -4.7040 259° West 453 521 31,900 240 Climbing FlightAware
06:07PM 48.4939 -4.7629 259° West 478 550 30,500 -2,400 Descending FlightAware UK
06:07PM 48.4862 -4.8183 258° West 476 548 30,500 3,900 Level FlightAware UK
06:07PM 48.4850 -4.8290 258° West 452 520 32,000  Climbing FlightAware
06:08PM 48.4759 -4.8919 258° West 476 548 30,500 -2,460 Descending FlightAware UK
06:08PM 48.4683 -4.9472 258° West 478 550 30,500 4,260 Level FlightAware UK
06:08PM 48.4680 -4.9520 258° West 452 520 32,000  Climbing FlightAware
06:08PM 48.4607 -5.0025 258° West 476 548 30,500 -2,760 Descending FlightAware UK
06:08PM 48.4530 -5.0579 258° West 476 548 30,500 3,600 Level FlightAware UK
06:09PM 48.4500 -5.0760 258° West 452 520 32,000  Climbing FlightAware
06:09PM 48.4426 -5.1310 258° West 476 548 30,500 -2,700 Descending FlightAware UK
06:09PM 48.4347 -5.1863 258° West 478 550 30,500 3,060 Level FlightAware UK
06:09PM 48.4320 -5.2090 258° West 453 521 32,000  Climbing FlightAware
06:10PM 48.4216 -5.2787 258° West 478 550 30,500 -2,460 Descending FlightAware UK
06:10PM 48.4136 -5.3340 258° West 478 550 30,500 4,260 Level FlightAware UK
06:10PM 48.4140 -5.3330 258° West 453 521 32,000  Climbing FlightAware
06:10PM 48.4056 -5.3894 258° West 478 550 30,500 -2,760 Descending FlightAware UK
06:11PM 48.3978 -5.4447 258° West 478 550 30,500 3,000 Level FlightAware UK
06:11PM 48.3950 -5.4660 258° West 453 521 32,000  Climbing FlightAware
06:11PM 48.3847 -5.5369 258° West 478 550 30,500 -2,520 Descending FlightAware UK
06:11PM 48.3769 -5.5915 258° West 476 548 30,500 4,080 Level FlightAware UK
06:11PM 48.3770 -5.5870 258° West 452 520 32,000  Climbing FlightAware
06:12PM 48.3661 -5.6650 258° West 476 548 30,500 -2,400 Descending FlightAware UK
06:12PM 48.3582 -5.7203 258° West 476 548 30,500 4,500 Level FlightAware UK
06:12PM 48.3590 -5.7120 258° West 453 521 32,000  Climbing FlightAware
06:12PM 48.3501 -5.7753 258° West 478 550 30,500 -2,700 Descending FlightAware UK
06:13PM 48.3419 -5.8304 257° West 478 550 30,500 3,060 Level FlightAware UK
06:13PM 48.3390 -5.8490 257° West 453 521 32,000  Climbing FlightAware
06:13PM 48.3279 -5.9214 257° West 476 548 30,500 -2,460 Descending FlightAware UK
06:13PM 48.3196 -5.9765 257° West 476 548 30,500 4,260 Level FlightAware UK
06:13PM 48.3210 -5.9720 257° West 453 521 32,000  Climbing FlightAware
06:14PM 48.3115 -6.0316 257° West 476 548 30,500 -2,760 Descending FlightAware UK
06:14PM 48.3033 -6.0867 257° West 476 548 30,500 3,000 Level FlightAware UK
06:14PM 48.2990 -6.1180 257° West 452 520 32,000  Climbing FlightAware
06:15PM 48.2895 -6.1785 257° West 478 550 30,500 -2,520 Descending FlightAware UK
06:15PM 48.2813 -6.2336 257° West 476 548 30,500 4,080 Level FlightAware UK
06:15PM 48.2810 -6.2410 257° West 452 520 32,000  Climbing FlightAware
06:15PM 48.2702 -6.3070 257° West 476 548 30,500 -2,400 Descending FlightAware UK
06:16PM 48.2617 -6.3619 257° West 476 548 30,500 4,500 Level FlightAware UK
06:16PM 48.2620 -6.3630 257° West 453 521 32,000  Climbing FlightAware
06:16PM 48.2534 -6.4169 257° West 474 545 30,500 -2,700 Descending FlightAware UK
06:16PM 48.2450 -6.4720 257° West 474 545 30,500 3,060 Level FlightAware UK
06:16PM 48.2420 -6.4970 257° West 453 521 32,000  Climbing FlightAware
06:17PM 48.2311 -6.5636 257° West 474 545 30,500 -2,460 Descending FlightAware UK
06:17PM 48.2226 -6.6184 257° West 476 548 30,500 4,260 Level FlightAware UK
06:17PM 48.2230 -6.6170 257° West 454 522 32,000  Climbing FlightAware
06:17PM 48.2141 -6.6733 257° West 476 548 30,500 -2,760 Descending FlightAware UK
06:18PM 48.2055 -6.7282 257° West 476 548 30,500 3,000 Level FlightAware UK
06:18PM 48.2010 -6.7610 257° West 455 524 32,000  Climbing FlightAware
06:18PM 48.1911 -6.8199 257° West 476 548 30,500 -2,520 Descending FlightAware UK
06:18PM 48.1824 -6.8750 257° West 476 548 30,500 4,080 Level FlightAware UK
06:18PM 48.1820 -6.8790 257° West 456 525 32,000  Climbing FlightAware
06:19PM 48.1709 -6.9479 257° West 478 550 30,500 -2,400 Descending FlightAware UK
06:19PM 48.1623 -7.0031 257° West 476 548 30,500 4,500 Level FlightAware UK
06:19PM 48.1630 -7.0040 257° West 456 525 32,000  Climbing FlightAware
06:19PM 48.1537 -7.0583 257° West 476 548 30,500 -2,700 Descending FlightAware UK
06:20PM 48.1449 -7.1135 257° West 476 548 30,500 3,300 Level FlightAware UK
06:20PM 48.1410 -7.1380 257° West 455 524 32,100  Climbing FlightAware
06:20PM 48.1302 -7.2053 257° West 476 548 30,500 -2,640 Descending FlightAware UK
06:20PM 48.1213 -7.2604 256° West 476 548 30,500 4,260 Level FlightAware UK
06:20PM 48.1230 -7.2560 256° West 455 524 32,000  Climbing FlightAware
06:21PM 48.1124 -7.3155 256° West 476 548 30,500 -2,760 Descending FlightAware UK
06:21PM 48.1035 -7.3705 256° West 476 548 30,500 4,500 Level FlightAware UK
06:21PM 48.1050 -7.3650 256° West 455 524 32,000  Climbing FlightAware
06:21PM 48.0946 -7.4255 256° West 474 545 30,500  Descending FlightAware UK
06:22PM 48.0810 -7.5100 256° West 457 526 32,000 1,080 Climbing FlightAware
06:23PM 48.0600 -7.6350 256° West 457 526 32,000  Level FlightAware
06:23PM 48.0430 -7.7400 256° West 457 526 32,000  Level FlightAware
06:24PM 48.0260 -7.8440 256° West 457 526 32,000  Level FlightAware
06:25PM 48.0080 -7.9480 256° West 457 526 32,000  Level FlightAware
06:25PM 47.9910 -8.0530 256° West 457 526 32,000  Level FlightAware
06:26PM 47.9690 -8.1830 256° West 457 526 32,000  Level FlightAware
06:27PM 47.9520 -8.2870 256° West 457 526 32,000  Level FlightAware
06:27PM 47.9340 -8.3910 256° West 457 526 32,000  Level FlightAware
06:28PM 47.9170 -8.4950 256° West 457 526 32,000  Level FlightAware
06:29PM 47.8990 -8.5990 256° West 457 526 32,000  Level FlightAware
06:30PM 47.8780 -8.7290 257° West 457 526 32,000  Level FlightAware
06:30PM 47.8600 -8.8330 256° West 457 526 32,000  Level FlightAware
06:31PM 47.8430 -8.9370 256° West 457 526 32,000  Level FlightAware
06:32PM 47.8260 -9.0410 256° West 457 526 32,000  Level FlightAware
06:34PM 47.8804 -9.3456 285° West  Level Estimated
06:35PM 47.9090 -9.5076 285° West  Level Estimated
06:36PM 47.9374 -9.6698 285° West  Level Estimated
06:37PM 47.9655 -9.8322 285° West  Level Estimated
06:38PM 47.9934 -9.9947 284° West  Level Estimated
06:39PM 48.0210 -10.1574 284° West  Level Estimated
06:40PM 48.0485 -10.3203 284° West  Level Estimated
06:41PM 48.0756 -10.4834 284° West  Level Estimated
06:42PM 48.1026 -10.6466 284° West  Level Estimated
06:43PM 48.1294 -10.8100 284° West  Level Estimated
06:44PM 48.1559 -10.9736 284° West  Level Estimated
06:45PM 48.1821 -11.1374 284° West  Level Estimated
06:46PM 48.2082 -11.3013 283° West  Level Estimated
06:47PM 48.2340 -11.4653 283° West  Level Estimated
06:48PM 48.2595 -11.6296 283° West  Level Estimated
06:49PM 48.2849 -11.7940 283° West  Level Estimated
06:50PM 48.3100 -11.9586 283° West  Level Estimated
06:51PM 48.3349 -12.1233 283° West  Level Estimated
06:52PM 48.3595 -12.2882 283° West  Level Estimated
06:53PM 48.3839 -12.4532 283° West  Level Estimated
06:54PM 48.4081 -12.6184 282° West  Level Estimated
06:55PM 48.4320 -12.7838 282° West  Level Estimated
06:56PM 48.4557 -12.9493 282° West  Level Estimated
06:57PM 48.4791 -13.1150 282° West  Level Estimated
06:58PM 48.5023 -13.2808 282° West  Level Estimated
06:59PM 48.5253 -13.4468 282° West  Level Estimated
07:00PM 48.5480 -13.6129 282° West  Level Estimated
07:01PM 48.5705 -13.7792 282° West  Level Estimated
07:02PM 48.5928 -13.9456 281° West  Level Estimated
07:03PM 48.6148 -14.1121 281° West  Level Estimated
07:04PM 48.6366 -14.2788 281° West  Level Estimated
07:05PM 48.6581 -14.4457 281° West  Level Estimated
07:06PM 48.6794 -14.6127 281° West  Level Estimated
07:07PM 48.7005 -14.7798 281° West  Level Estimated
07:08PM 48.7213 -14.9471 281° West  Level Estimated
07:09PM 48.7418 -15.1145 281° West  Level Estimated
07:10PM 48.7621 -15.2820 280° West  Level Estimated
07:11PM 48.7822 -15.4497 280° West  Level Estimated
07:12PM 48.8021 -15.6175 280° West  Level Estimated
07:13PM 48.8217 -15.7855 280° West  Level Estimated
07:14PM 48.8410 -15.9536 280° West  Level Estimated
07:15PM 48.8601 -16.1218 280° West  Level Estimated
07:16PM 48.8790 -16.2901 280° West  Level Estimated
07:17PM 48.8976 -16.4586 280° West  Level Estimated
07:18PM 48.9160 -16.6272 279° West  Level Estimated
07:19PM 48.9341 -16.7959 279° West  Level Estimated
07:20PM 48.9520 -16.9647 279° West  Level Estimated
07:21PM 48.9696 -17.1337 279° West  Level Estimated
07:22PM 48.9870 -17.3027 279° West  Level Estimated
07:23PM 49.0041 -17.4719 279° West  Level Estimated
07:24PM 49.0210 -17.6412 279° West  Level Estimated
07:25PM 49.0377 -17.8106 279° West  Level Estimated
07:26PM 49.0540 -17.9802 278° West  Level Estimated
07:27PM 49.0702 -18.1498 278° West  Level Estimated
07:28PM 49.0861 -18.3196 278° West  Level Estimated
07:29PM 49.1017 -18.4894 278° West  Level Estimated
07:30PM 49.1171 -18.6594 278° West  Level Estimated
07:31PM 49.1323 -18.8295 278° West  Level Estimated
07:32PM 49.1472 -18.9996 278° West  Level Estimated
07:33PM 49.1618 -19.1699 278° West  Level Estimated
07:34PM 49.1762 -19.3403 277° West  Level Estimated
07:35PM 49.1904 -19.5107 277° West  Level Estimated
07:36PM 49.2043 -19.6813 277° West  Level Estimated
07:37PM 49.2179 -19.8520 277° West  Level Estimated
07:38PM 49.2313 -20.0227 277° West  Level Estimated
07:39PM 49.2445 -20.1936 277° West  Level Estimated
07:40PM 49.2574 -20.3645 277° West  Level Estimated
07:41PM 49.2700 -20.5355 277° West  Level Estimated
07:42PM 49.2824 -20.7066 276° West  Level Estimated
07:43PM 49.2945 -20.8778 276° West  Level Estimated
07:44PM 49.3064 -21.0491 276° West  Level Estimated
07:45PM 49.3180 -21.2205 276° West  Level Estimated
07:46PM 49.3294 -21.3919 276° West  Level Estimated
07:47PM 49.3405 -21.5634 276° West  Level Estimated
07:48PM 49.3514 -21.7351 276° West  Level Estimated
07:49PM 49.3620 -21.9067 275° West  Level Estimated
07:50PM 49.3723 -22.0785 275° West  Level Estimated
07:51PM 49.3824 -22.2503 275° West  Level Estimated
07:52PM 49.3923 -22.4222 275° West  Level Estimated
07:53PM 49.4019 -22.5941 275° West  Level Estimated
07:54PM 49.4112 -22.7662 275° West  Level Estimated
07:55PM 49.4203 -22.9382 275° West  Level Estimated
07:56PM 49.4291 -23.1104 275° West  Level Estimated
07:57PM 49.4377 -23.2826 274° West  Level Estimated
07:58PM 49.4460 -23.4549 274° West  Level Estimated
07:59PM 49.4541 -23.6272 274° West  Level Estimated
08:00PM 49.4619 -23.7996 274° West  Level Estimated
08:01PM 49.4694 -23.9720 274° West  Level Estimated
08:02PM 49.4767 -24.1445 274° West  Level Estimated
08:03PM 49.4837 -24.3171 274° West  Level Estimated
08:04PM 49.4905 -24.4897 274° West  Level Estimated
08:05PM 49.4970 -24.6623 273° West  Level Estimated
08:06PM 49.5033 -24.8350 273° West  Level Estimated
08:07PM 49.5093 -25.0077 273° West  Level Estimated
08:08PM 49.5150 -25.1805 273° West  Level Estimated
08:09PM 49.5205 -25.3533 273° West  Level Estimated
08:10PM 49.5258 -25.5261 273° West  Level Estimated
08:11PM 49.5308 -25.6990 273° West  Level Estimated
08:12PM 49.5355 -25.8719 272° West  Level Estimated
08:13PM 49.5399 -26.0448 272° West  Level Estimated
08:14PM 49.5441 -26.2178 272° West  Level Estimated
08:15PM 49.5481 -26.3908 272° West  Level Estimated
08:16PM 49.5518 -26.5639 272° West  Level Estimated
08:17PM 49.5552 -26.7369 272° West  Level Estimated
08:18PM 49.5584 -26.9100 272° West  Level Estimated
08:19PM 49.5613 -27.0831 272° West  Level Estimated
08:20PM 49.5639 -27.2562 271° West  Level Estimated
08:21PM 49.5663 -27.4294 271° West  Level Estimated
08:22PM 49.5685 -27.6025 271° West  Level Estimated
08:23PM 49.5704 -27.7757 271° West  Level Estimated
08:24PM 49.5720 -27.9489 271° West  Level Estimated
08:25PM 49.5733 -28.1221 271° West  Level Estimated
08:26PM 49.5744 -28.2953 271° West  Level Estimated
08:27PM 49.5753 -28.4685 270° West  Level Estimated
08:28PM 49.5759 -28.6417 270° West  Level Estimated
08:29PM 49.5762 -28.8149 270° West  Level Estimated
08:30PM 49.5763 -28.9881 270° West  Level Estimated
08:31PM 49.5761 -29.1614 270° West  Level Estimated
08:32PM 49.5756 -29.3346 270° West  Level Estimated
08:33PM 49.5749 -29.5078 270° West  Level Estimated
08:34PM 49.5740 -29.6810 270° West  Level Estimated
08:35PM 49.5728 -29.8542 269° West  Level Estimated
08:36PM 49.5713 -30.0274 269° West  Level Estimated
08:37PM 49.5695 -30.2006 269° West  Level Estimated
08:38PM 49.5675 -30.3737 269° West  Level Estimated
08:39PM 49.5653 -30.5469 269° West  Level Estimated
08:40PM 49.5628 -30.7200 269° West  Level Estimated
08:41PM 49.5600 -30.8931 269° West  Level Estimated
08:42PM 49.5570 -31.0662 269° West  Level Estimated
08:43PM 49.5537 -31.2393 268° West  Level Estimated
08:44PM 49.5501 -31.4123 268° West  Level Estimated
08:45PM 49.5463 -31.5853 268° West  Level Estimated
08:46PM 49.5423 -31.7583 268° West  Level Estimated
08:47PM 49.5379 -31.9313 268° West  Level Estimated
08:48PM 49.5334 -32.1042 268° West  Level Estimated
08:49PM 49.5285 -32.2771 268° West  Level Estimated
08:50PM 49.5234 -32.4500 267° West  Level Estimated
08:51PM 49.5181 -32.6228 267° West  Level Estimated
08:52PM 49.5125 -32.7956 267° West  Level Estimated
08:53PM 49.5066 -32.9683 267° West  Level Estimated
08:54PM 49.5005 -33.1411 267° West  Level Estimated
08:55PM 49.4941 -33.3137 267° West  Level Estimated
08:56PM 49.4875 -33.4863 267° West  Level Estimated
08:57PM 49.4806 -33.6589 267° West  Level Estimated
08:58PM 49.4734 -33.8314 266° West  Level Estimated
08:59PM 49.4660 -34.0039 266° West  Level Estimated
09:00PM 49.4584 -34.1763 266° West  Level Estimated
09:01PM 49.4504 -34.3487 266° West  Level Estimated
09:02PM 49.4423 -34.5210 266° West  Level Estimated
09:03PM 49.4338 -34.6932 266° West  Level Estimated
09:04PM 49.4251 -34.8654 266° West  Level Estimated
09:05PM 49.4162 -35.0375 265° West  Level Estimated
09:06PM 49.4070 -35.2096 265° West  Level Estimated
09:07PM 49.3975 -35.3815 265° West  Level Estimated
09:08PM 49.3878 -35.5535 265° West  Level Estimated
09:09PM 49.3779 -35.7253 265° West  Level Estimated
09:10PM 49.3677 -35.8971 265° West  Level Estimated
09:11PM 49.3572 -36.0688 265° West  Level Estimated
09:12PM 49.3465 -36.2405 265° West  Level Estimated
09:13PM 49.3355 -36.4120 264° West  Level Estimated
09:14PM 49.3242 -36.5835 264° West  Level Estimated
09:15PM 49.3128 -36.7549 264° West  Level Estimated
09:16PM 49.3010 -36.9263 264° West  Level Estimated
09:17PM 49.2890 -37.0975 264° West  Level Estimated
09:18PM 49.2768 -37.2687 264° West  Level Estimated
09:19PM 49.2643 -37.4397 264° West  Level Estimated
09:20PM 49.2515 -37.6107 264° West  Level Estimated
09:21PM 49.2385 -37.7816 263° West  Level Estimated
09:22PM 49.2253 -37.9524 263° West  Level Estimated
09:23PM 49.2118 -38.1231 263° West  Level Estimated
09:24PM 49.1980 -38.2938 263° West  Level Estimated
09:25PM 49.1840 -38.4643 263° West  Level Estimated
09:26PM 49.1697 -38.6347 263° West  Level Estimated
09:27PM 49.1552 -38.8050 263° West  Level Estimated
09:28PM 49.1405 -38.9753 263° West  Level Estimated
09:29PM 49.1255 -39.1454 262° West  Level Estimated
09:30PM 49.1102 -39.3154 262° West  Level Estimated
09:31PM 49.0947 -39.4854 262° West  Level Estimated
09:32PM 49.0789 -39.6552 262° West  Level Estimated
09:33PM 49.0629 -39.8249 262° West  Level Estimated
09:34PM 49.0466 -39.9944 262° West  Level Estimated
09:35PM 49.0301 -40.1639 262° West  Level Estimated
09:36PM 49.0134 -40.3333 261° West  Level Estimated
09:37PM 48.9964 -40.5025 261° West  Level Estimated
09:38PM 48.9791 -40.6717 261° West  Level Estimated
09:39PM 48.9616 -40.8407 261° West  Level Estimated
09:40PM 48.9439 -41.0096 261° West  Level Estimated
09:41PM 48.9259 -41.1784 261° West  Level Estimated
09:42PM 48.9077 -41.3470 261° West  Level Estimated
09:43PM 48.8892 -41.5156 261° West  Level Estimated
09:44PM 48.8705 -41.6840 260° West  Level Estimated
09:45PM 48.8515 -41.8522 260° West  Level Estimated
09:46PM 48.8323 -42.0204 260° West  Level Estimated
09:47PM 48.8128 -42.1884 260° West  Level Estimated
09:48PM 48.7931 -42.3563 260° West  Level Estimated
09:49PM 48.7732 -42.5241 260° West  Level Estimated
09:50PM 48.7530 -42.6917 260° West  Level Estimated
09:51PM 48.7325 -42.8592 260° West  Level Estimated
09:52PM 48.7119 -43.0265 259° West  Level Estimated
09:53PM 48.6909 -43.1937 259° West  Level Estimated
09:54PM 48.6698 -43.3608 259° West  Level Estimated
09:55PM 48.6484 -43.5277 259° West  Level Estimated
09:56PM 48.6267 -43.6945 259° West  Level Estimated
09:57PM 48.6049 -43.8612 259° West  Level Estimated
09:58PM 48.5827 -44.0277 259° West  Level Estimated
09:59PM 48.5604 -44.1940 259° West  Level Estimated
10:00PM 48.5378 -44.3602 258° West  Level Estimated
10:01PM 48.5149 -44.5263 258° West  Level Estimated
10:02PM 48.4919 -44.6922 258° West  Level Estimated
10:03PM 48.4685 -44.8579 258° West  Level Estimated
10:04PM 48.4450 -45.0235 258° West  Level Estimated
10:05PM 48.4212 -45.1890 258° West  Level Estimated
10:06PM 48.3972 -45.3543 258° West  Level Estimated
10:07PM 48.3729 -45.5194 258° West  Level Estimated
10:08PM 48.3484 -45.6844 257° West  Level Estimated
10:09PM 48.3237 -45.8492 257° West  Level Estimated
10:10PM 48.2987 -46.0139 257° West  Level Estimated
10:11PM 48.2735 -46.1783 257° West  Level Estimated
10:12PM 48.2480 -46.3427 257° West  Level Estimated
10:13PM 48.2223 -46.5069 257° West  Level Estimated
10:14PM 48.1964 -46.6708 257° West  Level Estimated
10:15PM 48.1703 -46.8347 257° West  Level Estimated
10:16PM 48.1439 -46.9983 256° West  Level Estimated
10:17PM 48.1173 -47.1618 256° West  Level Estimated
10:18PM 48.0905 -47.3252 256° West  Level Estimated
10:19PM 48.0634 -47.4883 256° West  Level Estimated
10:20PM 48.0361 -47.6513 256° West  Level Estimated
10:21PM 48.0086 -47.8141 256° West  Level Estimated
10:22PM 47.9808 -47.9768 256° West  Level Estimated
10:23PM 47.9528 -48.1392 256° West  Level Estimated
10:24PM 47.9246 -48.3015 256° West  Level Estimated
10:25PM 47.8961 -48.4636 255° West  Level Estimated
10:26PM 47.8675 -48.6255 255° West  Level Estimated
10:27PM 47.8386 -48.7873 255° West  Level Estimated
10:28PM 47.8094 -48.9489 255° West  Level Estimated
10:29PM 47.7801 -49.1103 255° West  Level Estimated
10:30PM 47.7505 -49.2715 255° West  Level Estimated
10:31PM 47.7207 -49.4325 255° West  Level Estimated
10:32PM 47.6906 -49.5933 255° West  Level Estimated
10:33PM 47.6604 -49.7540 254° West  Level Estimated
10:34PM 47.6299 -49.9144 254° West  Level Estimated
10:35PM 47.5992 -50.0747 254° West  Level Estimated
10:36PM 47.5683 -50.2348 254° West  Level Estimated
10:37PM 47.5371 -50.3947 254° West  Level Estimated
10:38PM 47.5057 -50.5544 254° West  Level Estimated
10:39PM 47.4741 -50.7139 254° West  Level Estimated
10:40PM 47.4423 -50.8732 254° West  Level Estimated
10:41PM 47.4103 -51.0323 253° West  Level Estimated
10:42PM 47.3780 -51.1913 253° West  Level Estimated
10:43PM 47.3455 -51.3500 253° West  Level Estimated
10:44PM 47.3128 -51.5085 253° West  Level Estimated
10:45PM 47.2799 -51.6669 253° West  Level Estimated
10:46PM 47.2468 -51.8251 253° West  Level Estimated
10:47PM 47.2135 -51.9830 253° West  Level Estimated
10:48PM 47.1799 -52.1408 253° West  Level Estimated
10:49PM 47.1461 -52.2983 253° West  Level Estimated
10:50PM 47.1121 -52.4557 252° West  Level Estimated
10:51PM 47.0779 -52.6128 252° West  Level Estimated
10:52PM 47.0435 -52.7697 252° West  Level Estimated
10:53PM 47.0088 -52.9265 252° West  Level Estimated
10:54PM 46.9740 -53.0830 252° West  Level Estimated
10:55PM 46.9389 -53.2394 252° West  Level Estimated
10:56PM 46.9036 -53.3955 252° West  Level Estimated
10:57PM 46.8681 -53.5514 252° West  Level Estimated
10:58PM 46.8324 -53.7071 252° West  Level Estimated
10:59PM 46.7965 -53.8626 251° West  Level Estimated
11:00PM 46.7604 -54.0179 251° West  Level Estimated
11:01PM 46.7240 -54.1730 251° West  Level Estimated
11:02PM 46.6875 -54.3279 251° West  Level Estimated
11:03PM 46.6507 -54.4826 251° West  Level Estimated
11:04PM 46.6138 -54.6370 251° West  Level Estimated
11:05PM 46.5766 -54.7913 251° West  Level Estimated
11:06PM 46.5392 -54.9453 251° West  Level Estimated
11:07PM 46.5017 -55.0992 251° West  Level Estimated
11:08PM 46.4639 -55.2528 250° West  Level Estimated
11:09PM 46.4259 -55.4062 250° West  Level Estimated
11:10PM 46.3877 -55.5594 250° West  Level Estimated
11:11PM 46.3493 -55.7123 250° West  Level Estimated
11:12PM 46.3107 -55.8651 250° West  Level Estimated
11:13PM 46.2719 -56.0176 250° West  Level Estimated
11:14PM 46.2328 -56.1699 250° West  Level Estimated
11:15PM 46.1936 -56.3221 250° West  Level Estimated
11:16PM 46.1542 -56.4739 250° West  Level Estimated
11:17PM 46.1146 -56.6256 249° West  Level Estimated
11:18PM 46.0748 -56.7771 249° West  Level Estimated
11:19PM 46.0348 -56.9283 249° West  Level Estimated
11:20PM 45.9945 -57.0793 249° West  Level Estimated
11:21PM 45.9541 -57.2301 249° West  Level Estimated
11:22PM 45.9135 -57.3807 249° West  Level Estimated
11:23PM 45.8727 -57.5310 249° West  Level Estimated
11:24PM 45.8317 -57.6811 249° West  Level Estimated
11:25PM 45.7905 -57.8311 249° West  Level Estimated
11:26PM 45.7491 -57.9808 248° West  Level Estimated
11:27PM 45.7075 -58.1302 248° West  Level Estimated
11:28PM 45.6657 -58.2795 248° West  Level Estimated
11:29PM 45.6237 -58.4285 248° West  Level Estimated
11:30PM 45.5816 -58.5773 248° West  Level Estimated
11:31PM 45.5392 -58.7258 248° West  Level Estimated
11:32PM 45.4966 -58.8742 248° West  Level Estimated
11:33PM 45.4539 -59.0223 248° West  Level Estimated
11:34PM 45.4109 -59.1702 248° West  Level Estimated
11:35PM 45.3678 -59.3179 247° West  Level Estimated
11:36PM 45.3245 -59.4653 247° West  Level Estimated
11:37PM 45.2810 -59.6126 247° West  Level Estimated
11:38PM 45.2373 -59.7596 247° West  Level Estimated
11:39PM 45.1934 -59.9063 247° West  Level Estimated
11:40PM 45.1493 -60.0529 247° West  Level Estimated
11:41PM 45.1050 -60.1992 247° West  Level Estimated
11:42PM 45.0606 -60.3453 247° West  Level Estimated
11:43PM 45.0159 -60.4911 247° West  Level Estimated
11:44PM 44.9711 -60.6368 247° West  Level Estimated
11:44PM 41.4167 -65.0333 259° West 420 483 34,900  Level New York Oceanic (ODAPS)
11:45PM 44.9261 -60.7822 246° West  Level Estimated
11:46PM 44.8809 -60.9274 246° West  Level Estimated
11:47PM 44.8355 -61.0723 246° West  Level Estimated
11:48PM 44.7900 -61.2170 246° West  Level Estimated
11:49PM 44.7410 -61.3716 246° West  Level Estimated
11:50PM 41.2824 -65.9433 259° West 420 483 34,900  Level FlightAware Transoceanic
11:51PM 41.2593 -66.0946 258° West 420 483 34,900  Level FlightAware Transoceanic
11:52PM 41.2360 -66.2457 258° West 420 483 34,900  Level FlightAware Transoceanic
11:53PM 41.2125 -66.3968 258° West 420 483 34,900  Level FlightAware Transoceanic
11:54PM 41.1889 -66.5478 258° West 420 483 34,900  Level FlightAware Transoceanic
11:55PM 41.1650 -66.6986 258° West 420 483 34,900  Level FlightAware Transoceanic
11:56PM 41.1409 -66.8494 258° West 420 483 34,900  Level FlightAware Transoceanic
11:57PM 41.1167 -67.0000 263° West 420 483 34,900  Level FlightAware Transoceanic
11:58PM 41.1031 -67.1519 263° West 420 483 34,900 540 Level FlightAware Transoceanic
11:58PM 41.0917 -67.3397 263° West 473 544 36,000  Climbing New York Center
11:59PM 41.0894 -67.3037 263° West 420 483 34,900  Descending FlightAware Transoceanic
11:59PM 41.0758 -67.4397 258° West 473 544 36,000  Climbing New York Center
12:00AM 41.0755 -67.4554 263° West 420 483 34,900  Descending FlightAware Transoceanic
12:00AM 41.0611 -67.5917 263° West 448 516 36,000  Climbing New York Center
12:01AM 41.0614 -67.6071 263° West 420 483 34,900 -120 Descending FlightAware Transoceanic
12:01AM 41.0483 -67.7464 264° West 431 496 35,900  Climbing New York Center
12:02AM 41.0470 -67.7587 263° West 420 483 34,900 -900 Descending FlightAware Transoceanic
12:03AM 41.0325 -67.9102 263° West 420 483 34,900 180 Level FlightAware Transoceanic
12:06AM 40.9781 -68.4203 262° West 474 545 35,900 180 Climbing Boston Center
12:07AM 40.9647 -68.5722 263° West 447 514 35,900  Level Boston Center
12:08AM 40.9492 -68.7272 262° West 438 504 36,000  Climbing Boston Center
12:09AM 40.9331 -68.8792 262° West 428 493 36,000  Level Boston Center
12:10AM 40.9139 -69.0644 262° West 428 493 36,000 -60 Level Boston Center
12:11AM 40.8972 -69.2136 262° West 428 493 35,900 -60 Descending Boston Center
12:12AM 40.8808 -69.3625 262° West 428 493 35,900  Level Boston Center
12:13AM 40.8661 -69.5142 263° West 428 493 36,000  Climbing Boston Center
12:14AM 40.8456 -69.6964 262° West 428 493 36,000  Level Boston Center
12:15AM 40.8264 -69.8508 261° West 428 493 36,000  Level Boston Center
12:16AM 40.8111 -70.0050 263° West 428 493 36,000  Level Boston Center
12:17AM 40.7933 -70.1592 261° West 428 493 36,000 -60 Level Boston Center
12:18AM 40.7756 -70.3106 261° West 428 493 35,900  Descending Boston Center
12:24AM 40.6652 -71.2234 261° West 395 455 36,000  Climbing FlightAware ADS-B
12:25AM 40.6555 -71.2976 260° West 400 460 36,000  Level FlightAware ADS-B
12:25AM 40.6456 -71.3721 260° West 405 466 36,000  Level FlightAware ADS-B
12:26AM 40.6358 -71.4478 260° West 409 471 36,000  Level FlightAware ADS-B
12:26AM 40.6266 -71.5210 261° West 407 468 36,000  Level FlightAware ADS-B
12:27AM 40.6171 -71.5955 260° West 402 463 36,000  Level FlightAware ADS-B
12:27AM 40.6076 -71.6680 260° West 397 457 36,000  Level FlightAware ADS-B
12:28AM 40.5983 -71.7392 260° West 393 452 36,000  Level FlightAware ADS-B
12:28AM 40.5885 -71.8152 260° West 392 451 36,000  Level FlightAware ADS-B
12:29AM 40.5790 -71.8861 260° West 390 449 36,000  Level FlightAware ADS-B
12:29AM 40.5697 -71.9567 260° West 388 447 36,000  Level FlightAware ADS-B
12:30AM 40.5602 -72.0271 260° West 395 455 36,000  Level FlightAware ADS-B
12:30AM 40.5501 -72.1024 260° West 402 463 36,000  Level FlightAware ADS-B
12:31AM 40.5407 -72.1749 260° West 401 461 36,000  Level FlightAware ADS-B
12:31AM 40.5312 -72.2462 260° West 400 460 36,000  Level FlightAware ADS-B
12:32AM 40.5211 -72.3204 260° West 398 458 36,000  Level FlightAware ADS-B
12:32AM 40.5113 -72.3925 260° West 397 457 36,000  Level FlightAware ADS-B
12:33AM 40.5013 -72.4647 260° West 398 458 36,000  Level FlightAware ADS-B
12:33AM 40.4911 -72.5372 260° West 402 463 36,000  Level FlightAware ADS-B
12:34AM 40.4807 -72.6110 260° West 403 464 36,000  Level FlightAware ADS-B
12:34AM 40.4706 -72.6835 260° West 403 464 36,000  Level FlightAware ADS-B
12:35AM 40.4598 -72.7590 259° West 393 452 36,000  Level FlightAware ADS-B
12:35AM 40.4501 -72.8285 260° West 387 445 36,000  Level FlightAware ADS-B
12:36AM 40.4403 -72.8981 260° West 389 448 36,000  Level FlightAware ADS-B
12:36AM 40.4304 -72.9686 260° West 391 450 36,000  Level FlightAware ADS-B
12:37AM 40.4205 -73.0382 259° West 394 453 36,000  Level FlightAware ADS-B
12:37AM 40.4100 -73.1107 259° West 397 457 36,000  Level FlightAware ADS-B
12:38AM 40.3998 -73.1822 259° West 399 459 36,000  Level FlightAware ADS-B
12:38AM 40.3944 -73.2187 259° West 399 459 36,000  Level FlightAware ADS-B
12:38AM 40.3867 -73.2498 252° West 397 457 36,000  Level FlightAware ADS-B
12:39AM 40.3605 -73.3165 243° Southwest 398 458 36,000 60 Level FlightAware ADS-B
12:39AM 40.3351 -73.3830 243° Southwest 400 460 36,100 60 Climbing FlightAware ADS-B
12:40AM 40.3090 -73.4515 243° Southwest 401 461 36,100 -120 Level FlightAware ADS-B
12:40AM 40.2840 -73.5166 243° Southwest 402 463 36,000 -120 Descending FlightAware ADS-B
12:41AM 40.2583 -73.5830 243° Southwest 403 464 36,000  Level FlightAware ADS-B
12:41AM 40.2319 -73.6501 243° Southwest 403 464 36,000  Level FlightAware ADS-B
12:42AM 40.2057 -73.7171 243° Southwest 402 463 36,000  Level FlightAware ADS-B
12:42AM 40.1805 -73.7818 243° Southwest 400 460 36,000  Level FlightAware ADS-B
12:43AM 40.1535 -73.8510 243° Southwest 400 460 36,000  Level FlightAware ADS-B
12:44AM 40.1280 -73.9154 243° Southwest 398 458 36,000  Level FlightAware ADS-B
12:44AM 40.1026 -73.9798 243° Southwest 398 458 36,000  Level FlightAware ADS-B
12:45AM 40.0773 -74.0441 243° Southwest 397 457 36,000  Level FlightAware ADS-B
12:45AM 40.0513 -74.1105 243° Southwest 397 457 36,000  Level FlightAware ADS-B
12:46AM 40.0245 -74.1772 242° Southwest 395 455 36,000  Level FlightAware ADS-B
12:46AM 39.9989 -74.2407 242° Southwest 399 459 36,000  Level FlightAware ADS-B
12:47AM 39.9731 -74.3057 243° Southwest 401 461 36,000 60 Level FlightAware ADS-B
12:47AM 39.9475 -74.3705 243° Southwest 402 463 36,100 60 Climbing FlightAware ADS-B
12:48AM 39.9217 -74.4346 242° Southwest 401 461 36,100  Level FlightAware ADS-B
12:48AM 39.8956 -74.4995 242° Southwest 400 460 36,100 -120 Level FlightAware ADS-B
12:49AM 39.8599 -74.5878 242° Southwest 399 459 36,000 -120 Descending FlightAware ADS-B
12:49AM 39.8338 -74.6534 243° Southwest 396 456 36,000  Level FlightAware ADS-B
12:50AM 39.8079 -74.7178 242° Southwest 394 453 36,000  Level FlightAware ADS-B
12:50AM 39.7822 -74.7807 242° Southwest 393 452 36,000  Level FlightAware ADS-B
12:51AM 39.7561 -74.8453 242° Southwest 393 452 36,000  Level FlightAware ADS-B
12:51AM 39.7304 -74.9081 242° Southwest 394 453 36,000  Level FlightAware ADS-B
12:52AM 39.7035 -74.9740 242° Southwest 395 455 36,000  Level FlightAware ADS-B
12:52AM 39.6777 -75.0377 242° Southwest 396 456 36,000 60 Level FlightAware ADS-B
12:53AM 39.6561 -75.0910 242° Southwest 396 456 36,100 60 Climbing FlightAware ADS-B
12:53AM 39.6299 -75.1547 242° Southwest 396 456 36,100  Level FlightAware ADS-B
12:54AM 39.6035 -75.2190 242° Southwest 395 455 36,100 -120 Level FlightAware ADS-B
12:54AM 39.5775 -75.2821 242° Southwest 393 452 36,000 -120 Descending FlightAware ADS-B
12:55AM 39.5504 -75.3480 242° Southwest 392 451 36,000  Level FlightAware ADS-B
12:55AM 39.5239 -75.4120 242° Southwest 392 451 36,000  Level FlightAware ADS-B
12:56AM 39.4981 -75.4742 242° Southwest 391 450 36,000  Level FlightAware ADS-B
12:56AM 39.4726 -75.5358 242° Southwest 391 450 36,000  Level FlightAware ADS-B
12:57AM 39.4446 -75.6031 242° Southwest 390 449 36,000  Level FlightAware ADS-B
12:57AM 39.4186 -75.6658 242° Southwest 390 449 36,000  Level FlightAware ADS-B
12:58AM 39.3919 -75.7278 241° Southwest 392 451 36,000  Level FlightAware ADS-B
12:58AM 39.3661 -75.7902 242° Southwest 393 452 36,000  Level FlightAware ADS-B
12:59AM 39.3402 -75.8525 242° Southwest 393 452 36,000 60 Level FlightAware ADS-B
12:59AM 39.3141 -75.9150 242° Southwest 395 455 36,100 60 Climbing FlightAware ADS-B
01:00AM 39.2878 -75.9777 242° Southwest 396 456 36,100 -120 Level FlightAware ADS-B
01:00AM 39.2611 -76.0403 241° Southwest 399 459 36,000 -120 Descending FlightAware ADS-B
01:01AM 39.2345 -76.1028 241° Southwest 399 459 36,000 60 Level FlightAware ADS-B
01:01AM 39.2081 -76.1662 242° Southwest 397 457 36,100 60 Climbing FlightAware ADS-B
01:02AM 39.1818 -76.2286 241° Southwest 394 453 36,100  Level FlightAware ADS-B
01:02AM 39.1553 -76.2908 241° Southwest 391 450 36,100 -120 Level FlightAware ADS-B
01:03AM 39.1289 -76.3520 241° Southwest 389 448 36,000 -120 Descending FlightAware ADS-B
01:03AM 39.1033 -76.4120 241° Southwest 386 444 36,000  Level FlightAware ADS-B
01:04AM 39.0773 -76.4723 241° Southwest 383 441 36,000  Level FlightAware ADS-B
01:04AM 39.0516 -76.5325 241° Southwest 384 442 36,000  Level FlightAware ADS-B
01:05AM 39.0254 -76.5932 241° Southwest 387 445 36,000  Level FlightAware ADS-B
01:05AM 38.9991 -76.6544 241° Southwest 388 447 36,000  Level FlightAware ADS-B
01:06AM 38.9729 -76.7151 241° Southwest 388 447 36,000 60 Level FlightAware ADS-B
01:07AM 38.9462 -76.7768 241° Southwest 389 448 36,100 60 Climbing FlightAware ADS-B
01:07AM 38.9202 -76.8375 241° Southwest 390 449 36,100  Level FlightAware ADS-B
01:08AM 38.8939 -76.8989 241° Southwest 393 452 36,100  Level FlightAware ADS-B
01:08AM 38.8673 -76.9601 241° Southwest 391 450 36,100  Level FlightAware ADS-B
01:09AM 38.8407 -77.0207 241° Southwest 388 447 36,100 -120 Level FlightAware ADS-B
01:09AM 38.8142 -77.0809 241° Southwest 386 444 36,000 -120 Descending FlightAware ADS-B
01:10AM 38.7881 -77.1404 241° Southwest 384 442 36,000  Level FlightAware ADS-B
01:10AM 38.7616 -77.2010 241° Southwest 383 441 36,000  Level FlightAware ADS-B
01:11AM 38.7354 -77.2609 241° Southwest 382 440 36,000  Level FlightAware ADS-B
01:11AM 38.7091 -77.3212 241° Southwest 382 440 36,000  Level FlightAware ADS-B
01:12AM 38.6823 -77.3817 240° Southwest 383 441 36,000  Level FlightAware ADS-B
01:12AM 38.6562 -77.4408 241° Southwest 383 441 36,000  Level FlightAware ADS-B
01:13AM 38.6299 -77.5003 241° Southwest 384 442 36,000 60 Level FlightAware ADS-B
01:13AM 38.6031 -77.5607 240° Southwest 385 443 36,100 60 Climbing FlightAware ADS-B
01:14AM 38.5766 -77.6204 240° Southwest 385 443 36,100  Level FlightAware ADS-B
01:14AM 38.5503 -77.6796 240° Southwest 384 442 36,100 -120 Level FlightAware ADS-B
01:15AM 38.5238 -77.7388 240° Southwest 383 441 36,000 -120 Descending FlightAware ADS-B
01:15AM 38.4974 -77.7980 240° Southwest 383 441 36,000  Level FlightAware ADS-B
01:16AM 38.4711 -77.8572 240° Southwest 382 440 36,000  Level FlightAware ADS-B
01:16AM 38.4446 -77.9166 240° Southwest 383 441 36,000  Level FlightAware ADS-B
01:17AM 38.4177 -77.9759 240° Southwest 384 442 36,000  Level FlightAware ADS-B
01:17AM 38.3912 -78.0349 240° Southwest 385 443 36,000 60 Level FlightAware ADS-B
01:18AM 38.3647 -78.0939 240° Southwest 386 444 36,100 60 Climbing FlightAware ADS-B
01:18AM 38.3375 -78.1540 240° Southwest 386 444 36,100  Level FlightAware ADS-B
01:19AM 38.3106 -78.2137 240° Southwest 386 444 36,100  Level FlightAware ADS-B
01:19AM 38.2834 -78.2744 240° Southwest 386 444 36,100  Level FlightAware ADS-B
01:20AM 38.2561 -78.3340 240° Southwest 385 443 36,100 -120 Level FlightAware ADS-B
01:20AM 38.2241 -78.4044 240° Southwest 384 442 36,000 -60 Descending FlightAware ADS-B
01:21AM 38.1660 -78.5320 240° Southwest 378 435 36,000  Level FlightAware
01:22AM 38.1270 -78.6170 240° Southwest 375 432 36,000  Level FlightAware
01:23AM 38.0920 -78.6940 240° Southwest 373 429 36,000  Level FlightAware
01:23AM 38.0580 -78.7680 240° Southwest 373 429 36,000  Level FlightAware
01:24AM 38.0170 -78.8560 239° Southwest 375 432 36,000  Level FlightAware
01:25AM 37.9830 -78.9290 239° Southwest 377 434 36,000 60 Level FlightAware
01:26AM 37.9470 -79.0060 239° Southwest 376 433 36,100  Climbing FlightAware
01:26AM 37.9090 -79.0900 240° Southwest 375 432 36,000 -120 Descending FlightAware
01:27AM 37.8640 -79.1580 230° Southwest 381 438 36,000 60 Level FlightAware
01:28AM 37.8090 -79.2340 228° Southwest 378 435 36,100  Climbing FlightAware
01:28AM 37.7630 -79.2990 228° Southwest 373 429 36,000 -120 Descending FlightAware
01:29AM 37.7160 -79.3640 228° Southwest 371 427 36,000  Level FlightAware
01:30AM 37.6680 -79.4290 227° Southwest 370 426 36,000  Level FlightAware
01:30AM 37.6290 -79.4830 228° Southwest 370 426 36,000  Level FlightAware
01:31AM 37.5650 -79.5720 228° Southwest 377 434 36,000 60 Level FlightAware
01:32AM 37.5280 -79.6220 227° Southwest 376 433 36,100 60 Climbing FlightAware
01:33AM 37.4570 -79.7190 227° Southwest 378 435 36,100  Level FlightAware
01:33AM 37.4170 -79.7740 228° Southwest 378 435 36,100  Level FlightAware
01:34AM 37.3660 -79.8420 227° Southwest 378 435 36,100  Level FlightAware
01:35AM 37.3260 -79.8970 228° Southwest 378 435 36,100 -120 Level FlightAware
01:36AM 37.2390 -80.0180 228° Southwest 375 432 36,000 -120 Descending FlightAware
01:37AM 37.1980 -80.0720 226° Southwest 375 432 36,000  Level FlightAware
01:37AM 37.1580 -80.1260 227° Southwest 375 432 36,000  Level FlightAware
01:38AM 37.1180 -80.1800 227° Southwest 375 432 36,000  Level FlightAware
01:39AM 37.0680 -80.2480 227° Southwest 375 432 36,000  Level FlightAware
01:39AM 37.0270 -80.3020 226° Southwest 375 432 36,000  Level FlightAware
01:40AM 36.9870 -80.3560 227° Southwest 375 432 36,000  Level FlightAware
01:41AM 36.9470 -80.4100 227° Southwest 375 432 36,000  Level FlightAware
01:41AM 36.9070 -80.4640 227° Southwest 375 432 36,000  Level FlightAware
01:42AM 36.8570 -80.5310 227° Southwest 375 432 36,000  Level FlightAware
01:43AM 36.8260 -80.5720 227° Southwest 375 432 36,000  Level FlightAware
01:44AM 36.7760 -80.6390 227° Southwest 375 432 36,000  Level FlightAware
01:44AM 36.7360 -80.6930 227° Southwest 375 432 36,000  Level FlightAware
01:45AM 36.6960 -80.7470 227° Southwest 375 432 36,000  Level FlightAware
01:48AM 36.3745 -81.1509 225° Southwest 376 433 36,000  Level FlightAware ADS-B
01:48AM 36.3371 -81.1962 224° Southwest 375 432 36,000  Level FlightAware ADS-B
01:49AM 36.2996 -81.2412 224° Southwest 373 429 36,000  Level FlightAware ADS-B
01:49AM 36.2623 -81.2859 224° Southwest 371 427 36,000  Level FlightAware ADS-B
01:52AM 36.0613 -81.5241 224° Southwest 373 429 36,000  Level FlightAware ADS-B
01:53AM 36.0226 -81.5683 223° Southwest 371 427 36,000 60 Level FlightAware ADS-B
01:53AM 35.9656 -81.6341 223° Southwest 373 429 36,100 60 Climbing FlightAware ADS-B
01:54AM 35.9270 -81.6785 223° Southwest 373 429 36,100  Level FlightAware ADS-B
01:54AM 35.8891 -81.7219 223° Southwest 373 429 36,100  Level FlightAware ADS-B
01:55AM 35.8493 -81.7677 223° Southwest 369 425 36,100  Level FlightAware ADS-B
01:55AM 35.8118 -81.8110 223° Southwest 366 421 36,100 -120 Level FlightAware ADS-B
01:56AM 35.7744 -81.8537 223° Southwest 362 417 36,000 -120 Descending FlightAware ADS-B
01:56AM 35.7371 -81.8964 223° Southwest 359 413 36,000  Level FlightAware ADS-B
01:57AM 35.7004 -81.9386 223° Southwest 357 411 36,000  Level FlightAware ADS-B
01:58AM 35.6633 -81.9809 223° Southwest 359 413 36,000  Level FlightAware ADS-B
01:58AM 35.6256 -82.0234 223° Southwest 360 414 36,000  Level FlightAware ADS-B
01:59AM 35.5874 -82.0666 223° Southwest 359 413 36,000  Level FlightAware ADS-B
01:59AM 35.5505 -82.1084 223° Southwest 360 414 36,000  Level FlightAware ADS-B
02:00AM 35.5136 -82.1503 223° Southwest 360 414 36,000  Level FlightAware ADS-B
02:00AM 35.4766 -82.1921 223° Southwest 361 415 36,000  Level FlightAware ADS-B
02:01AM 35.4395 -82.2340 223° Southwest 362 417 36,000  Level FlightAware ADS-B
02:01AM 35.4020 -82.2762 223° Southwest 362 417 36,000  Level FlightAware ADS-B
02:02AM 35.3647 -82.3183 223° Southwest 361 415 36,000  Level FlightAware ADS-B
02:02AM 35.3273 -82.3606 223° Southwest 360 414 36,000  Level FlightAware ADS-B
02:03AM 35.2890 -82.4037 223° Southwest 361 415 36,000 60 Level FlightAware ADS-B
02:03AM 35.2521 -82.4451 223° Southwest 363 418 36,100 60 Climbing FlightAware ADS-B
02:04AM 35.2130 -82.4888 222° Southwest 366 421 36,100  Level FlightAware ADS-B
02:04AM 35.1736 -82.5329 222° Southwest 366 421 36,100  Level FlightAware ADS-B
02:05AM 35.1361 -82.5750 223° Southwest 364 419 36,100 -120 Level FlightAware ADS-B
02:05AM 35.0989 -82.6167 223° Southwest 364 419 36,000 -120 Descending FlightAware ADS-B
02:06AM 35.0616 -82.6584 222° Southwest 365 420 36,000  Level FlightAware ADS-B
02:06AM 35.0242 -82.6999 222° Southwest 365 420 36,000  Level FlightAware ADS-B
02:07AM 34.9866 -82.7415 222° Southwest 363 418 36,000  Level FlightAware ADS-B
02:07AM 34.9493 -82.7836 223° Southwest 362 417 36,000  Level FlightAware ADS-B
02:08AM 34.9116 -82.8252 222° Southwest 362 417 36,000  Level FlightAware ADS-B
02:08AM 34.8740 -82.8668 222° Southwest 360 414 36,000  Level FlightAware ADS-B
02:09AM 34.8187 -82.9280 222° Southwest 359 413 36,000 -360 Level FlightAware ADS-B
02:09AM 34.7816 -82.9691 222° Southwest 355 409 35,600 -1,860 Descending FlightAware ADS-B
02:10AM 34.7411 -83.0135 222° Southwest 353 406 34,100 -2,760 Descending FlightAware ADS-B
02:10AM 34.7040 -83.0550 223° Southwest 355 409 32,700 -2,700 Descending FlightAware ADS-B
02:11AM 34.6690 -83.0930 222° Southwest 355 409 31,400 -2,280 Descending FlightAware ADS-B
02:11AM 34.6331 -83.1327 222° Southwest 348 400 30,500 -1,980 Descending FlightAware ADS-B
02:12AM 34.5969 -83.1725 222° Southwest 340 391 29,400 -2,220 Descending FlightAware ADS-B
02:12AM 34.5617 -83.2107 222° Southwest 336 387 28,300 -2,280 Descending FlightAware ADS-B
02:13AM 34.5207 -83.2561 222° Southwest 333 383 26,900 -2,280 Descending FlightAware ADS-B
02:14AM 34.4863 -83.2936 222° Southwest 329 379 25,800 -2,160 Descending FlightAware ADS-B
02:14AM 34.4572 -83.3254 222° Southwest 328 377 24,900 -2,160 Descending FlightAware ADS-B
02:15AM 34.4190 -83.3660 221° Southwest 327 376 23,600 -2,100 Descending FlightAware
02:15AM 34.3700 -83.4200 222° Southwest 319 367 22,100 -2,040 Descending FlightAware
02:16AM 34.3370 -83.4570 223° Southwest 317 365 21,100 -2,160 Descending FlightAware
02:17AM 34.2870 -83.5110 222° Southwest 317 365 19,400 -2,220 Descending FlightAware
02:17AM 34.2440 -83.5580 222° Southwest 316 364 18,000 -2,220 Descending FlightAware
02:18AM 34.1990 -83.6050 221° Southwest 316 364 16,500 -1,920 Descending FlightAware
02:19AM 34.1520 -83.6560 222° Southwest 310 357 15,300 -1,380 Descending FlightAware
02:19AM 34.1070 -83.7050 222° Southwest 309 356 14,600 -1,440 Descending FlightAware
02:20AM 34.0600 -83.7560 222° Southwest 305 351 13,300 -1,740 Descending FlightAware
02:21AM 34.0200 -83.7990 222° Southwest 302 348 12,200 -1,440 Descending FlightAware
02:23AM 33.8970 -83.9140 218° Southwest 263 303 9,600 -1,440 Descending FlightAware
02:24AM 33.7950 -84.0000 215° Southwest 260 299 7,100 -1,560 Descending FlightAware
02:25AM 33.7600 -84.0310 216° Southwest 263 303 6,100 -1,020 Descending FlightAware
02:25AM 33.7360 -84.0530 217° Southwest 263 303 6,100 -780 Level FlightAware
02:26AM 33.6833 -84.1167 217° Southwest 244 281 5,000 -840 Descending Atlanta TRACON
02:27AM 33.6500 -84.1667 231° Southwest 206 237 4,500 -540 Descending Atlanta TRACON
02:28AM 33.6333 -84.2333 253° West 192 221 4,000 -720 Descending Atlanta TRACON
02:29AM 33.6333 -84.2833 270° West 164 189 3,100 -900 Descending Atlanta TRACON
02:30AM 33.6333 -84.3333 270° West 157 181 2,300 -840 Descending Atlanta TRACON
02:31AM 33.6333 -84.4000 270° West 160 184 1,500 -840 Descending Atlanta TRACON
02:33AM 33.6333 -84.4167 270° West  Level FlightAware Approximate
02:40AM 33.6367 -84.4279 270° West  Level Estimated
02:41AM 33.6367 -84.4279 270° West  Level Estimated